Time;durP1;ratioP1;P1;durP2;ratioP2;P2;SDS_P1;SDS_P2;PMS_P1;PMS_P2;Temp;Humidity;BMP_temperature;BMP_pressure;BME280_temperature;BME280_humidity;BME280_pressure;Samples;Min_cycle;Max_cycle;Signal;HPM_P1;HPM_P2
2022/06/03 00:02:31;;;;;;;0.40;0.20;;;;;;;14.61;72.71;100393.19;5013083;28;20527;-74
2022/06/03 00:05:19;;;;;;;0.40;0.20;;;;;;;14.49;72.60;100384.75;5001198;28;20945;-74
2022/06/03 00:08:14;;;;;;;0.40;0.30;;;;;;;14.12;74.16;100376.53;5013138;28;20453;-74
2022/06/03 00:11:02;;;;;;;1.03;1.03;;;;;;;14.19;74.39;100375.31;5013050;28;20452;-74
2022/06/03 00:13:48;;;;;;;0.40;0.30;;;;;;;13.98;75.12;100373.53;5004482;28;20457;-74
2022/06/03 00:16:39;;;;;;;0.30;0.20;;;;;;;14.19;74.78;100367.31;5002999;28;20476;-74
2022/06/03 00:19:27;;;;;;;0.40;0.20;;;;;;;14.09;75.36;100368.63;5013406;28;21025;-74
2022/06/03 00:22:12;;;;;;;0.40;0.20;;;;;;;14.22;74.62;100370.72;5013125;28;20527;-74
2022/06/03 00:25:06;;;;;;;0.40;0.27;;;;;;;14.10;75.04;100371.22;5012954;28;20997;-74
2022/06/03 00:27:43;;;;;;;0.40;0.20;;;;;;;14.20;74.64;100369.03;5000199;28;20457;-74
2022/06/03 00:30:21;;;;;;;0.30;0.20;;;;;;;13.93;75.95;100369.25;5012786;28;20448;-74
2022/06/03 00:33:06;;;;;;;0.40;0.20;;;;;;;14.01;75.75;100370.75;5012767;28;21001;-74
2022/06/03 00:35:48;;;;;;;0.40;0.20;;;;;;;14.07;75.42;100373.16;5012676;28;20449;-74
2022/06/03 00:38:53;;;;;;;0.40;0.20;;;;;;;13.92;76.35;100370.19;5012518;28;20568;-74
2022/06/03 00:41:41;;;;;;;0.47;0.37;;;;;;;13.67;76.69;100366.78;4982784;28;20503;-74
2022/06/03 00:44:30;;;;;;;0.40;0.30;;;;;;;13.84;76.26;100375.00;5012809;28;20509;-74
2022/06/03 00:47:16;;;;;;;0.40;0.20;;;;;;;13.84;76.65;100372.31;5012482;28;20931;-74
2022/06/03 00:50:01;;;;;;;0.40;0.20;;;;;;;13.61;76.86;100367.03;5012509;28;20452;-74
2022/06/03 00:52:39;;;;;;;0.40;0.20;;;;;;;13.54;77.95;100373.53;5011970;28;20500;-74
2022/06/03 00:55:31;;;;;;;0.40;0.20;;;;;;;13.47;78.07;100369.38;4999548;28;20456;-74
2022/06/03 00:58:08;;;;;;;0.40;0.20;;;;;;;13.55;77.71;100360.09;4995021;28;20445;-74
2022/06/03 01:00:56;;;;;;;0.40;0.20;;;;;;;13.46;78.16;100357.81;4994950;28;20449;-74
2022/06/03 01:03:51;;;;;;;0.40;0.30;;;;;;;13.20;79.38;100365.97;5012613;28;20469;-74
2022/06/03 01:06:46;;;;;;;1.23;0.50;;;;;;;13.39;79.11;100368.78;5012388;28;20496;-74
2022/06/03 01:09:37;;;;;;;0.40;0.20;;;;;;;13.47;79.35;100378.25;5012247;28;20988;-74
2022/06/03 01:12:26;;;;;;;3.03;0.73;;;;;;;13.26;80.15;100377.28;5012188;28;20472;-74
2022/06/03 01:15:22;;;;;;;0.37;0.20;;;;;;;13.28;79.92;100374.53;5001782;28;20464;-74
2022/06/03 01:18:07;;;;;;;0.40;0.20;;;;;;;13.38;79.85;100367.91;4999146;28;20453;-74
2022/06/03 01:20:57;;;;;;;0.40;0.20;;;;;;;13.39;79.90;100368.78;4994828;28;20446;-75
2022/06/03 01:23:42;;;;;;;0.40;0.20;;;;;;;13.01;81.56;100371.06;4994829;28;20475;-74
2022/06/03 01:26:45;;;;;;;0.30;0.20;;;;;;;13.45;80.17;100377.44;5000573;28;20911;-74
2022/06/03 01:29:20;;;;;;;0.40;0.20;;;;;;;13.02;80.49;100375.53;4999264;28;20922;-74
2022/06/03 01:32:12;;;;;;;0.40;0.30;;;;;;;13.34;79.77;100375.19;5011993;28;20798;-74
2022/06/03 01:35:15;;;;;;;0.40;0.20;;;;;;;13.19;80.20;100373.09;5012260;28;20531;-74
2022/06/03 01:37:59;;;;;;;0.40;0.27;;;;;;;12.97;81.49;100375.66;5002810;28;20534;-74
2022/06/03 01:40:58;;;;;;;0.37;0.20;;;;;;;13.12;81.12;100381.34;5011930;28;20479;-75
2022/06/03 01:44:03;;;;;;;0.40;0.20;;;;;;;13.03;81.19;100375.47;5012045;28;20522;-74
2022/06/03 01:46:39;;;;;;;0.40;0.40;;;;;;;13.27;80.11;100376.34;5011827;28;21071;-74
2022/06/03 01:49:27;;;;;;;0.37;0.23;;;;;;;12.95;80.92;100366.84;5011911;28;20456;-74
2022/06/03 01:52:12;;;;;;;0.30;0.20;;;;;;;12.79;82.75;100370.16;4999312;28;20472;-74
2022/06/03 01:55:23;;;;;;;0.30;0.20;;;;;;;13.22;81.28;100366.78;4994468;28;20444;-74
2022/06/03 01:58:28;;;;;;;0.40;0.30;;;;;;;12.81;82.49;100371.81;5011698;28;21004;-74
2022/06/03 02:01:05;;;;;;;0.30;0.20;;;;;;;12.63;82.57;100370.69;5011648;28;20448;-74
2022/06/03 02:03:57;;;;;;;0.30;0.20;;;;;;;12.59;83.40;100371.72;5014738;28;20571;-74
2022/06/03 02:06:42;;;;;;;0.30;0.20;;;;;;;12.82;82.38;100370.91;5015340;28;20917;-74
2022/06/03 02:09:23;;;;;;;0.30;0.20;;;;;;;12.79;82.73;100365.69;5015201;28;20563;-74
2022/06/03 02:11:59;;;;;;;0.40;0.40;;;;;;;12.65;82.96;100362.66;5015211;28;20449;-74
2022/06/03 02:14:51;;;;;;;0.30;0.20;;;;;;;12.50;83.96;100365.84;5015355;28;20507;-74
2022/06/03 02:17:28;;;;;;;0.40;0.30;;;;;;;12.51;83.56;100365.81;5015029;28;20890;-74
2022/06/03 02:20:13;;;;;;;0.30;0.20;;;;;;;12.30;84.73;100356.75;5015315;28;20452;-74
2022/06/03 02:23:09;;;;;;;0.30;0.20;;;;;;;12.29;84.37;100346.13;5002777;28;20477;-74
2022/06/03 02:25:44;;;;;;;0.30;0.20;;;;;;;12.39;84.59;100355.56;5014927;28;20496;-74
2022/06/03 02:28:32;;;;;;;0.30;0.20;;;;;;;12.29;84.71;100346.13;5015038;28;20448;-74
2022/06/03 02:31:10;;;;;;;0.30;0.20;;;;;;;12.61;84.01;100345.00;5004451;28;20445;-74
2022/06/03 02:33:57;;;;;;;0.40;0.20;;;;;;;12.44;84.05;100338.47;5014906;28;20473;-74
2022/06/03 02:36:43;;;;;;;0.30;0.20;;;;;;;12.46;84.14;100349.06;4997420;28;20491;-74
2022/06/03 02:39:27;;;;;;;0.30;0.20;;;;;;;12.68;83.81;100349.19;5003765;28;20954;-74
2022/06/03 02:42:26;;;;;;;0.40;0.30;;;;;;;12.28;85.45;100355.06;5014753;28;20476;-74
2022/06/03 02:45:17;;;;;;;0.40;0.30;;;;;;;12.24;85.65;100348.97;4977198;28;20834;-74
2022/06/03 02:48:11;;;;;;;0.40;0.30;;;;;;;12.45;85.24;100345.53;5014482;28;20487;-74
2022/06/03 02:50:56;;;;;;;0.30;0.20;;;;;;;12.44;84.30;100348.25;5014512;28;20480;-74
2022/06/03 02:53:31;;;;;;;0.30;0.20;;;;;;;12.73;83.70;100344.53;4996975;28;20556;-74
2022/06/03 02:56:16;;;;;;;0.30;0.20;;;;;;;12.41;84.66;100338.59;5014607;28;20452;-74
2022/06/03 02:59:08;;;;;;;0.30;0.20;;;;;;;12.37;85.46;100347.63;5014506;28;20483;-74
2022/06/03 03:02:05;;;;;;;0.30;0.20;;;;;;;12.55;84.46;100343.44;5014155;28;20453;-74
2022/06/03 03:04:43;;;;;;;0.30;0.20;;;;;;;12.36;85.28;100342.34;5014215;28;20449;-74
2022/06/03 03:07:34;;;;;;;0.30;0.20;;;;;;;12.51;84.97;100343.59;5014475;28;20619;-74
2022/06/03 03:10:15;;;;;;;0.30;0.20;;;;;;;12.66;84.06;100343.03;5003563;28;20514;-74
2022/06/03 03:13:03;;;;;;;0.30;0.20;;;;;;;12.40;85.46;100351.97;5014293;28;20523;-74
2022/06/03 03:16:01;;;;;;;0.30;0.20;;;;;;;12.39;85.31;100345.78;4996113;28;20942;-74
2022/06/03 03:18:27;;;;;;;0.30;0.20;;;;;;;12.32;85.28;100343.34;5014038;28;20451;-74
2022/06/03 03:21:00;;;;;;;0.30;0.20;;;;;;;11.98;87.33;100341.84;5013917;28;20827;-74
2022/06/03 03:23:36;;;;;;;0.30;0.20;;;;;;;12.28;86.25;100341.72;5013922;28;20473;-74
2022/06/03 03:26:32;;;;;;;0.30;0.20;;;;;;;12.14;85.96;100329.75;5001277;28;20542;-74
2022/06/03 03:29:21;;;;;;;0.30;0.20;;;;;;;12.19;86.40;100326.91;5013613;28;20452;-74
2022/06/03 03:32:03;;;;;;;0.30;0.20;;;;;;;12.15;86.87;100330.63;4996450;28;20499;-74
2022/06/03 03:34:42;;;;;;;0.30;0.20;;;;;;;12.41;86.32;100337.72;5014004;28;20460;-73
2022/06/03 03:37:27;;;;;;;0.30;0.20;;;;;;;12.19;86.34;100342.03;5013654;28;20813;-74
2022/06/03 03:40:23;;;;;;;0.83;0.67;;;;;;;12.17;86.43;100334.09;5013750;28;20519;-74
2022/06/03 03:43:12;;;;;;;0.33;0.20;;;;;;;12.20;86.34;100334.03;4977593;28;20489;-74
2022/06/03 03:45:45;;;;;;;0.50;0.50;;;;;;;12.18;86.79;100325.19;5002515;28;20511;-74
2022/06/03 03:48:43;;;;;;;0.30;0.20;;;;;;;12.20;86.28;100328.69;5013431;28;20445;-74
2022/06/03 03:51:19;;;;;;;0.30;0.20;;;;;;;12.38;86.15;100329.84;5013849;28;20480;-74
2022/06/03 03:54:16;;;;;;;0.30;0.20;;;;;;;12.25;86.30;100324.06;5013290;28;20472;-74
2022/06/03 03:57:17;;;;;;;0.30;0.20;;;;;;;12.38;85.99;100328.03;5013484;28;20498;-74
2022/06/03 04:00:21;;;;;;;0.40;0.30;;;;;;;12.20;87.07;100330.44;5011375;28;20483;-74
2022/06/03 04:02:54;;;;;;;0.30;0.20;;;;;;;12.47;86.42;100326.81;5013133;28;20464;-74
2022/06/03 04:05:38;;;;;;;0.30;0.20;;;;;;;12.14;87.26;100332.41;4995695;28;20527;-75
2022/06/03 04:08:08;;;;;;;0.30;0.20;;;;;;;12.34;86.66;100330.88;5000489;28;20460;-74
2022/06/03 04:11:01;;;;;;;0.30;0.20;;;;;;;12.61;86.01;100324.56;5013017;28;20526;-74
2022/06/03 04:13:53;;;;;;;0.30;0.20;;;;;;;12.58;86.31;100331.78;4995030;28;20522;-75
2022/06/03 04:16:41;;;;;;;0.30;0.23;;;;;;;13.05;85.15;100314.88;5000777;28;20461;-75
2022/06/03 04:19:24;;;;;;;0.30;0.20;;;;;;;12.54;87.29;100320.34;5012883;28;20449;-74
2022/06/03 04:22:08;;;;;;;0.30;0.20;;;;;;;12.96;85.22;100328.56;5013147;28;20460;-73
2022/06/03 04:24:47;;;;;;;0.53;0.53;;;;;;;12.93;85.33;100323.34;4984170;28;20453;-74
2022/06/03 04:27:37;;;;;;;0.30;0.20;;;;;;;12.96;85.52;100317.03;5012052;28;20496;-74
2022/06/03 04:30:25;;;;;;;0.30;0.20;;;;;;;13.46;83.44;100319.56;5012760;28;20527;-75
2022/06/03 04:33:12;;;;;;;0.30;0.30;;;;;;;14.23;80.22;100318.97;5006416;28;20515;-74
2022/06/03 04:35:48;;;;;;;0.30;0.20;;;;;;;15.24;76.37;100319.81;5012627;28;20437;-75
2022/06/03 04:38:49;;;;;;;0.30;0.20;;;;;;;16.04;72.39;100311.44;5012832;28;20491;-74
2022/06/03 04:41:33;;;;;;;0.30;0.20;;;;;;;16.12;71.44;100303.00;5012890;28;20448;-75
2022/06/03 04:44:37;;;;;;;0.40;0.30;;;;;;;16.08;71.13;100306.78;5001120;28;20896;-75
2022/06/03 04:47:19;;;;;;;0.40;0.20;;;;;;;15.98;71.41;100307.25;4999727;28;20981;-75
2022/06/03 04:50:18;;;;;;;1.00;1.00;;;;;;;16.31;70.61;100309.16;4995435;28;20503;-74
2022/06/03 04:53:29;;;;;;;0.40;0.20;;;;;;;16.68;71.32;100301.88;4976650;28;20560;-75
2022/06/03 04:56:21;;;;;;;0.40;0.20;;;;;;;16.35;72.69;100310.72;5012520;28;20452;-75
2022/06/03 04:59:09;;;;;;;0.70;0.70;;;;;;;16.47;72.23;100318.16;4995153;28;20449;-75
2022/06/03 05:01:41;;;;;;;0.40;0.30;;;;;;;16.73;71.15;100303.38;5012318;28;20509;-75
2022/06/03 05:04:36;;;;;;;0.40;0.20;;;;;;;16.59;70.85;100292.47;5012639;28;20530;-75
2022/06/03 05:07:50;;;;;;;0.40;0.20;;;;;;;16.43;71.48;100295.09;5012288;28;20567;-75
2022/06/03 05:10:22;;;;;;;0.40;0.40;;;;;;;16.23;73.80;100296.13;4950258;28;20456;-76
2022/06/03 05:13:08;;;;;;;0.40;0.20;;;;;;;16.09;72.87;100289.75;4994706;28;20468;-75
2022/06/03 05:16:11;;;;;;;0.40;0.30;;;;;;;16.03;72.99;100285.56;5012464;28;20456;-76
2022/06/03 05:18:52;;;;;;;0.30;0.20;;;;;;;16.03;73.04;100290.91;5012302;28;20510;-75
2022/06/03 05:21:57;;;;;;;0.60;0.60;;;;;;;16.15;73.28;100287.59;5000759;28;20461;-75
2022/06/03 05:24:56;;;;;;;0.40;0.37;;;;;;;16.07;73.55;100286.28;4999267;28;20452;-75
2022/06/03 05:27:49;;;;;;;0.40;0.20;;;;;;;16.15;74.06;100289.44;4994728;28;20558;-75
2022/06/03 05:30:53;;;;;;;4.10;0.70;;;;;;;16.14;74.20;100301.09;5012623;28;20452;-75
2022/06/03 05:33:26;;;;;;;0.40;0.20;;;;;;;16.25;74.80;100301.41;4994899;28;20475;-75
2022/06/03 05:36:11;;;;;;;0.40;0.20;;;;;;;16.11;75.91;100295.91;4983519;28;20501;-75
2022/06/03 05:39:04;;;;;;;13.47;1.60;;;;;;;16.30;75.77;100302.91;4998001;28;20444;-76
2022/06/03 05:45:00;;;;;;;0.40;0.20;;;;;;;16.87;73.89;100298.13;4997643;28;20476;-76
2022/06/03 05:47:31;;;;;;;0.40;0.30;;;;;;;17.03;73.71;100299.97;5016147;28;20492;-75
2022/06/03 05:50:11;;;;;;;7.00;1.03;;;;;;;17.03;73.08;100287.41;5015678;28;20494;-75
2022/06/03 05:53:02;;;;;;;0.40;0.20;;;;;;;17.27;73.25;100300.41;4998096;28;20472;-76
2022/06/03 05:55:51;;;;;;;0.50;0.50;;;;;;;17.38;72.23;100301.53;5005754;28;20499;-75
2022/06/03 05:58:25;;;;;;;0.40;0.20;;;;;;;17.41;71.21;100293.34;5015393;28;20445;-75
2022/06/03 06:01:25;;;;;;;0.40;0.30;;;;;;;17.53;71.44;100301.63;5015428;28;20881;-75
2022/06/03 06:04:07;;;;;;;0.40;0.20;;;;;;;17.51;71.59;100307.09;4998227;28;20456;-75
2022/06/03 06:06:52;;;;;;;0.40;0.20;;;;;;;17.55;71.48;100313.19;5003046;28;20492;-76
2022/06/03 06:09:34;;;;;;;0.40;0.20;;;;;;;17.90;70.29;100306.66;5015325;28;20518;-76
2022/06/03 06:12:12;;;;;;;0.70;0.70;;;;;;;18.09;69.53;100308.25;5015389;28;20974;-76
2022/06/03 06:15:23;;;;;;;0.60;0.60;;;;;;;18.14;68.91;100314.25;5002670;28;20467;-76
2022/06/03 06:18:22;;;;;;;0.60;0.60;;;;;;;18.30;69.17;100312.38;4919698;29;20444;-75
2022/06/03 06:21:17;;;;;;;0.40;0.30;;;;;;;18.57;67.54;100310.69;5015288;28;20858;-76
2022/06/03 06:23:46;;;;;;;0.40;0.20;;;;;;;18.68;67.93;100312.75;5015084;28;20472;-76
2022/06/03 06:26:30;;;;;;;0.40;0.20;;;;;;;19.06;65.76;100315.75;5014893;28;20550;-76
2022/06/03 06:29:19;;;;;;;0.40;0.20;;;;;;;19.12;65.06;100309.09;4997607;28;20453;-76
2022/06/03 06:32:04;;;;;;;0.40;0.20;;;;;;;19.33;64.54;100302.34;4997883;28;20515;-76
2022/06/03 06:35:07;;;;;;;0.40;0.37;;;;;;;19.11;65.30;100308.22;5014735;28;20555;-77
2022/06/03 06:37:52;;;;;;;0.40;0.20;;;;;;;19.24;64.48;100302.94;5004501;28;20510;-76
2022/06/03 06:40:53;;;;;;;2.30;1.03;;;;;;;19.22;64.95;100311.13;4997808;28;20949;-76
2022/06/03 06:43:43;;;;;;;0.40;0.20;;;;;;;19.48;63.48;100305.88;5020164;28;20476;-76
2022/06/03 06:46:36;;;;;;;0.40;0.20;;;;;;;19.36;62.45;100303.97;5034704;28;20488;-76
2022/06/03 06:49:03;;;;;;;1.60;1.50;;;;;;;19.20;62.92;100307.66;5020933;28;20449;-76
2022/06/03 06:51:41;;;;;;;0.40;0.30;;;;;;;19.30;64.80;100301.66;5036016;28;20452;-76
2022/06/03 06:54:40;;;;;;;0.40;0.20;;;;;;;19.55;64.20;100304.53;5018465;28;20448;-76
2022/06/03 06:57:17;;;;;;;0.40;0.20;;;;;;;19.50;62.07;100299.41;4955029;28;20457;-76
2022/06/03 06:59:49;;;;;;;0.40;0.20;;;;;;;19.41;63.36;100305.41;5019867;28;20452;-76
2022/06/03 07:02:25;;;;;;;0.40;0.30;;;;;;;19.49;63.46;100299.53;5014649;28;20523;-76
2022/06/03 07:05:23;;;;;;;0.70;0.37;;;;;;;19.65;62.81;100296.72;4997056;28;20480;-75
2022/06/03 07:07:55;;;;;;;0.40;0.30;;;;;;;19.46;58.68;100305.97;5008333;28;20538;-76
2022/06/03 07:10:27;;;;;;;0.40;0.20;;;;;;;19.28;58.01;100296.38;5014462;28;20507;-75
2022/06/03 07:13:00;;;;;;;0.40;0.20;;;;;;;19.28;59.23;100308.97;5014028;28;20526;-76
2022/06/03 07:16:02;;;;;;;0.40;0.20;;;;;;;19.05;56.52;100302.34;5014131;28;20495;-76
2022/06/03 07:21:53;;;;;;;0.40;0.20;;;;;;;19.40;57.38;100281.22;5004661;28;20448;-76
2022/06/03 07:24:37;;;;;;;0.40;0.27;;;;;;;19.63;56.41;100272.53;4996315;28;20946;-76
2022/06/03 07:27:29;;;;;;;0.40;0.30;;;;;;;19.67;57.47;100257.88;5013948;28;20488;-76
2022/06/03 07:30:09;;;;;;;0.40;0.33;;;;;;;19.42;56.92;100265.81;5013843;28;20445;-76
2022/06/03 07:32:42;;;;;;;0.43;0.27;;;;;;;19.67;57.16;100257.88;5002219;28;20878;-76
2022/06/03 07:35:24;;;;;;;0.40;0.30;;;;;;;19.80;56.23;100255.22;4996534;28;20792;-76
2022/06/03 07:38:05;;;;;;;0.40;0.20;;;;;;;20.11;55.68;100256.69;4996441;28;20441;-76
2022/06/03 07:40:43;;;;;;;0.40;0.20;;;;;;;20.04;55.61;100256.25;5001357;28;20456;-76
2022/06/03 07:43:19;;;;;;;0.40;0.20;;;;;;;20.28;55.91;100244.72;4981159;28;20507;-76
2022/06/03 07:45:55;;;;;;;0.40;0.20;;;;;;;19.83;55.18;100242.38;5013619;28;20491;-76
2022/06/03 07:48:25;;;;;;;0.40;0.20;;;;;;;20.11;55.44;100235.97;5013389;28;20540;-75
2022/06/03 07:51:05;;;;;;;0.40;0.20;;;;;;;20.58;54.72;100242.63;5013937;28;20449;-76
2022/06/03 07:53:50;;;;;;;0.40;0.20;;;;;;;20.32;54.09;100235.47;4984216;28;20468;-75
2022/06/03 07:56:21;;;;;;;0.40;0.20;;;;;;;20.63;53.29;100234.19;5013496;28;20451;-76
2022/06/03 07:58:52;;;;;;;0.40;0.20;;;;;;;20.99;52.95;100228.84;4995928;28;20456;-76
2022/06/03 08:01:35;;;;;;;0.40;0.20;;;;;;;20.72;52.59;100232.69;5013095;28;20490;-76
2022/06/03 08:04:05;;;;;;;0.50;0.30;;;;;;;20.74;53.04;100223.50;5013091;28;20460;-76
2022/06/03 08:12:25;;;;;;;0.40;0.30;;;;;;;21.25;52.07;100226.13;5012960;28;20499;-76
2022/06/03 08:14:51;;;;;;;0.50;0.30;;;;;;;21.36;52.11;100226.16;4995671;28;20502;-76
2022/06/03 08:17:19;;;;;;;0.40;0.20;;;;;;;21.34;51.94;100216.44;4995751;28;20460;-76
2022/06/03 08:19:47;;;;;;;0.40;0.20;;;;;;;21.32;51.42;100213.84;5012994;28;21004;-76
2022/06/03 08:22:21;;;;;;;1.27;0.50;;;;;;;21.88;50.42;100224.94;5012970;28;20477;-76
2022/06/03 08:24:54;;;;;;;0.40;0.23;;;;;;;21.77;49.94;100219.47;5012878;28;20510;-76
2022/06/03 08:27:34;;;;;;;0.40;0.20;;;;;;;21.71;50.63;100207.28;4995624;28;20496;-76
2022/06/03 08:30:07;;;;;;;0.40;0.30;;;;;;;21.95;49.67;100201.84;5012919;28;20946;-76
2022/06/03 08:32:39;;;;;;;0.40;0.30;;;;;;;21.85;49.33;100196.25;5000560;28;21005;-76
2022/06/03 08:35:21;;;;;;;0.57;0.40;;;;;;;22.09;48.44;100190.84;4995417;28;20461;-76
2022/06/03 08:37:58;;;;;;;0.40;0.20;;;;;;;22.24;47.93;100186.06;5012794;28;20967;-76
2022/06/03 08:40:49;;;;;;;0.50;0.30;;;;;;;21.99;49.56;100194.34;5012681;28;20456;-76
2022/06/03 08:43:34;;;;;;;0.50;0.40;;;;;;;22.55;49.09;100195.31;5012399;28;20468;-76
2022/06/03 08:46:03;;;;;;;0.50;0.40;;;;;;;22.25;48.28;100201.31;5012624;28;21020;-76
2022/06/03 08:48:35;;;;;;;0.40;0.20;;;;;;;22.62;47.76;100188.44;5012562;28;20501;-76
2022/06/03 08:51:08;;;;;;;0.40;0.20;;;;;;;22.88;47.09;100196.31;5012614;28;20969;-76
2022/06/03 08:53:57;;;;;;;0.40;0.30;;;;;;;23.12;47.71;100207.03;4995062;28;21028;-76
2022/06/03 08:56:30;;;;;;;0.40;0.20;;;;;;;23.00;46.59;100193.47;5012342;28;20958;-76
2022/06/03 08:58:58;;;;;;;0.50;0.30;;;;;;;23.04;47.47;100188.69;4994977;28;20958;-76
2022/06/03 09:01:25;;;;;;;0.40;0.20;;;;;;;22.76;47.95;100193.59;5012349;28;20459;-76
2022/06/03 09:03:51;;;;;;;0.40;0.20;;;;;;;22.63;48.28;100200.13;5012271;28;20476;-76
2022/06/03 09:06:33;;;;;;;0.40;0.20;;;;;;;23.01;48.05;100197.03;5012164;28;20535;-76
2022/06/03 09:09:18;;;;;;;0.70;0.53;;;;;;;23.04;48.64;100192.25;5012536;28;20518;-76
2022/06/03 09:12:03;;;;;;;0.53;0.53;;;;;;;22.87;48.12;100191.88;5012615;28;20598;-76
2022/06/03 09:14:31;;;;;;;0.40;0.30;;;;;;;23.51;47.38;100187.44;5003574;28;20453;-76
2022/06/03 09:17:06;;;;;;;0.40;0.30;;;;;;;23.43;47.61;100175.50;5015848;28;20879;-76
2022/06/03 09:19:41;;;;;;;0.40;0.20;;;;;;;23.43;47.98;100192.63;4999150;28;20447;-76
2022/06/03 09:22:24;;;;;;;0.40;0.20;;;;;;;24.10;47.30;100178.78;4998863;28;20476;-76
2022/06/03 09:24:56;;;;;;;0.40;0.20;;;;;;;23.99;47.63;100176.16;5016541;28;20502;-76
2022/06/03 09:27:25;;;;;;;0.40;0.20;;;;;;;24.02;46.96;100181.31;5016005;28;20912;-76
2022/06/03 09:29:55;;;;;;;1.83;0.60;;;;;;;24.20;47.01;100182.41;5016374;28;20519;-77
2022/06/03 09:32:25;;;;;;;0.50;0.30;;;;;;;23.90;47.38;100185.06;5016189;28;20464;-76
2022/06/03 09:35:01;;;;;;;0.40;0.23;;;;;;;23.90;47.25;100169.66;5016343;28;20452;-76
2022/06/03 09:37:35;;;;;;;0.40;0.30;;;;;;;24.18;46.95;100178.97;5015973;28;20536;-77
2022/06/03 09:40:07;;;;;;;0.50;0.33;;;;;;;24.32;46.06;100174.22;5015811;28;20503;-76
2022/06/03 09:42:36;;;;;;;0.40;0.30;;;;;;;23.98;47.51;100163.53;5015833;28;20538;-77
2022/06/03 09:45:05;;;;;;;0.50;0.33;;;;;;;24.36;47.95;100165.66;5015824;28;20452;-77
2022/06/03 09:47:35;;;;;;;0.40;0.20;;;;;;;23.94;48.09;100156.66;4998358;28;20558;-76
2022/06/03 09:50:02;;;;;;;0.40;0.30;;;;;;;24.04;47.65;100152.16;5015727;28;20450;-77
2022/06/03 09:52:29;;;;;;;0.40;0.30;;;;;;;24.50;47.46;100149.00;5015568;28;20481;-76
2022/06/03 09:55:00;;;;;;;0.50;0.30;;;;;;;24.08;47.53;100156.31;5015663;28;20922;-77
2022/06/03 09:57:40;;;;;;;0.50;0.50;;;;;;;24.31;47.98;100159.78;5015858;28;20503;-76
2022/06/03 10:00:21;;;;;;;0.50;0.40;;;;;;;24.51;47.92;100152.56;5003606;28;20483;-76
2022/06/03 10:02:48;;;;;;;0.53;0.50;;;;;;;24.94;47.02;100155.00;5015323;28;20472;-77
2022/06/03 10:05:20;;;;;;;0.40;0.30;;;;;;;25.03;46.93;100162.38;5015846;28;20938;-77
2022/06/03 10:07:51;;;;;;;0.40;0.20;;;;;;;24.75;47.45;100163.13;5015267;28;20555;-77
2022/06/03 10:13:07;;;;;;;0.40;0.30;;;;;;;25.26;46.75;100152.13;5003492;28;20840;-77
2022/06/03 10:15:41;;;;;;;4.30;1.07;;;;;;;25.19;46.79;100144.66;5015260;28;20539;-77
2022/06/03 10:18:17;;;;;;;0.60;0.60;;;;;;;24.75;47.57;100146.81;5015332;28;20453;-77
2022/06/03 10:20:44;;;;;;;0.40;0.20;;;;;;;24.16;48.43;100144.81;5015087;28;20868;-76
2022/06/03 10:23:12;;;;;;;0.40;0.20;;;;;;;24.90;47.96;100139.97;5015055;28;20515;-76
2022/06/03 10:26:00;;;;;;;0.50;0.40;;;;;;;24.86;48.54;100134.97;5015204;28;20480;-76
2022/06/03 10:28:32;;;;;;;0.40;0.30;;;;;;;24.80;48.46;100139.94;4997961;28;20503;-76
2022/06/03 10:31:05;;;;;;;0.60;0.60;;;;;;;25.02;47.80;100138.91;4995922;28;20464;-76
2022/06/03 10:33:33;;;;;;;0.40;0.27;;;;;;;25.14;48.70;100138.78;5006771;28;20555;-77
2022/06/03 10:36:01;;;;;;;0.40;0.20;;;;;;;25.36;48.44;100142.13;5014738;28;21001;-77
2022/06/03 10:38:32;;;;;;;0.40;0.20;;;;;;;24.99;47.69;100151.91;5015179;28;20507;-76
2022/06/03 10:41:06;;;;;;;0.40;0.20;;;;;;;25.13;47.86;100139.78;5014786;28;20453;-77
2022/06/03 10:43:34;;;;;;;0.40;0.30;;;;;;;25.06;47.86;100136.75;5014801;28;20480;-76
2022/06/03 10:46:27;;;;;;;0.40;0.20;;;;;;;24.59;48.82;100132.88;4997719;28;20997;-76
2022/06/03 10:49:10;;;;;;;0.40;0.27;;;;;;;24.57;49.32;100122.16;4984713;28;20492;-76
2022/06/03 11:02:49;;;;;;;0.50;0.50;;;;;;;25.12;49.48;100117.16;5014549;28;20473;-77
2022/06/03 11:05:25;;;;;;;0.40;0.30;;;;;;;25.38;48.76;100125.66;4997109;28;20543;-76
2022/06/03 11:08:03;;;;;;;1.07;1.07;;;;;;;25.66;48.17;100116.59;5014366;28;20527;-77
2022/06/03 11:10:43;;;;;;;0.50;0.30;;;;;;;25.47;48.88;100129.34;5014372;28;20536;-76
2022/06/03 11:13:24;;;;;;;0.40;0.20;;;;;;;25.52;49.46;100118.91;5003129;28;20559;-76
2022/06/03 11:15:50;;;;;;;2.67;1.23;;;;;;;25.56;48.67;100120.31;5014818;28;20437;-76
2022/06/03 11:18:19;;;;;;;0.50;0.40;;;;;;;26.11;47.20;100121.41;5014155;28;20527;-77
2022/06/03 11:20:48;;;;;;;0.60;0.50;;;;;;;26.20;46.91;100114.25;4996783;28;20460;-76
2022/06/03 11:23:15;;;;;;;0.40;0.30;;;;;;;26.40;46.62;100120.50;5014316;28;20510;-76
2022/06/03 11:25:46;;;;;;;0.50;0.40;;;;;;;26.01;47.76;100109.69;4996516;28;20464;-77
2022/06/03 11:28:16;;;;;;;0.40;0.27;;;;;;;26.13;47.01;100102.19;5013996;28;20481;-77
2022/06/03 11:30:52;;;;;;;0.40;0.30;;;;;;;26.11;47.25;100093.31;5014325;28;20480;-76
2022/06/03 11:33:24;;;;;;;0.60;0.60;;;;;;;26.56;46.48;100091.56;5014061;28;20468;-77
2022/06/03 11:35:57;;;;;;;2.13;0.37;;;;;;;26.15;46.64;100081.97;5013535;28;20475;-77
2022/06/03 11:38:39;;;;;;;0.50;0.40;;;;;;;26.38;46.82;100084.34;5013876;28;20445;-77
2022/06/03 11:41:13;;;;;;;0.73;0.73;;;;;;;25.99;47.78;100082.59;5014274;28;20428;-76
2022/06/03 11:43:50;;;;;;;0.80;0.40;;;;;;;26.38;48.04;100070.72;5013583;28;21147;-76
2022/06/03 11:46:41;;;;;;;0.80;0.80;;;;;;;26.44;47.17;100070.97;5013805;28;20506;-77
2022/06/03 11:49:09;;;;;;;0.50;0.50;;;;;;;26.29;47.99;100062.41;5013871;28;20578;-77
2022/06/03 11:51:36;;;;;;;0.63;0.63;;;;;;;25.69;48.63;100063.75;5013743;28;20449;-77
2022/06/03 11:54:10;;;;;;;0.40;0.30;;;;;;;26.04;48.43;100051.31;4996237;28;20448;-76
2022/06/03 11:56:37;;;;;;;0.40;0.30;;;;;;;26.56;47.31;100056.13;5013775;28;21023;-76
2022/06/03 11:59:19;;;;;;;0.40;0.30;;;;;;;26.28;48.34;100057.09;5013522;28;20476;-77
2022/06/03 12:01:48;;;;;;;0.83;0.70;;;;;;;26.56;47.50;100061.56;5000636;28;20441;-77
2022/06/03 12:04:21;;;;;;;4.73;1.03;;;;;;;26.33;47.63;100052.06;5013656;28;20519;-77
2022/06/03 12:07:12;;;;;;;0.50;0.40;;;;;;;27.13;46.74;100053.19;5013557;28;20822;-77
2022/06/03 12:09:57;;;;;;;0.40;0.30;;;;;;;27.72;45.39;100057.16;4995937;28;20866;-75
2022/06/03 12:15:30;;;;;;;0.40;0.20;;;;;;;27.01;47.47;100060.78;5013517;28;20449;-77
2022/06/03 12:18:14;;;;;;;22.00;1.10;;;;;;;27.36;46.11;100048.97;5013320;28;20452;-77
2022/06/03 12:20:43;;;;;;;0.50;0.30;;;;;;;27.77;45.70;100052.06;5013477;28;20448;-74
2022/06/03 12:23:13;;;;;;;0.40;0.30;;;;;;;27.67;46.05;100043.94;5013488;28;20472;-74
2022/06/03 12:25:48;;;;;;;0.50;0.43;;;;;;;26.85;47.02;100050.47;5012879;28;20464;-75
2022/06/03 12:28:39;;;;;;;0.70;0.67;;;;;;;26.89;47.11;100053.78;5012876;28;20551;-74
2022/06/03 12:31:19;;;;;;;0.40;0.30;;;;;;;26.69;47.81;100054.91;4985935;28;20495;-75
2022/06/03 12:33:55;;;;;;;1.07;1.07;;;;;;;26.82;47.21;100047.22;5012984;28;20820;-74
2022/06/03 12:36:25;;;;;;;0.60;0.50;;;;;;;27.36;47.08;100043.50;5013152;28;20584;-75
2022/06/03 12:39:01;;;;;;;0.50;0.33;;;;;;;27.36;46.39;100051.69;5002792;23;20440;-77
2022/06/03 12:41:46;;;;;;;0.40;0.30;;;;;;;27.28;46.86;100048.06;5001158;28;20473;-77
2022/06/03 12:44:42;;;;;;;0.50;0.30;;;;;;;26.63;48.00;100052.81;5003517;28;20438;-77
2022/06/03 12:47:18;;;;;;;0.40;0.30;;;;;;;27.25;47.50;100053.81;4998929;28;20436;-77
2022/06/03 12:49:45;;;;;;;0.40;0.30;;;;;;;27.04;47.59;100059.59;4998945;28;20471;-77
2022/06/03 12:52:20;;;;;;;0.53;0.50;;;;;;;27.37;47.39;100063.47;5004911;28;20477;-77
2022/06/03 12:54:59;;;;;;;0.50;0.30;;;;;;;27.17;47.46;100067.41;5006890;28;20441;-77
2022/06/03 12:57:41;;;;;;;1.67;1.60;;;;;;;27.01;47.13;100074.41;5004772;28;20445;-77
2022/06/03 13:00:24;;;;;;;0.40;0.30;;;;;;;27.10;46.57;100073.47;5001159;28;20452;-77
2022/06/03 13:02:55;;;;;;;0.50;0.30;;;;;;;27.33;48.16;100076.59;4999983;28;20709;-77